Time;durP1;ratioP1;P1;durP2;ratioP2;P2;SDS_P1;SDS_P2;PMS_P1;PMS_P2;Temp;Humidity;BMP_temperature;BMP_pressure;BME280_temperature;BME280_humidity;BME280_pressure;Samples;Min_cycle;Max_cycle;Signal;HPM_P1;HPM_P2
2024/01/25 00:02:03;;;;;;;31.27;4.45;;;;;;;7.12;100.00;102712.81;5070851;28;20085;-74
2024/01/25 00:04:28;;;;;;;24.25;5.97;;;;;;;7.06;100.00;102707.22;5070893;28;20443;-74
2024/01/25 00:06:54;;;;;;;21.92;5.10;;;;;;;7.03;100.00;102717.09;5070803;28;20527;-74
2024/01/25 00:09:19;;;;;;;24.67;7.45;;;;;;;6.95;100.00;102713.41;5070736;28;20037;-74
2024/01/25 00:11:44;;;;;;;23.60;5.07;;;;;;;6.90;100.00;102718.25;5069132;28;20110;-74
2024/01/25 00:14:10;;;;;;;26.42;3.92;;;;;;;6.83;100.00;102709.09;5070562;28;20028;-74
2024/01/25 00:16:35;;;;;;;25.58;6.00;;;;;;;6.82;100.00;102721.53;5070520;28;20114;-74
2024/01/25 00:19:00;;;;;;;28.00;6.03;;;;;;;6.76;100.00;102730.81;5070482;28;20024;-74
2024/01/25 00:21:26;;;;;;;20.00;5.25;;;;;;;6.74;100.00;102724.81;5070556;28;20425;-74
2024/01/25 00:23:51;;;;;;;19.80;4.00;;;;;;;6.71;100.00;102713.63;5069673;28;20663;-74
2024/01/25 00:26:16;;;;;;;22.02;6.75;;;;;;;6.63;100.00;102722.19;5070592;28;20032;-74
2024/01/25 00:28:42;;;;;;;17.65;3.42;;;;;;;6.59;100.00;102723.38;5070554;28;20115;-74
2024/01/25 00:31:07;;;;;;;24.02;5.22;;;;;;;6.57;100.00;102726.16;5070449;28;20067;-74
2024/01/25 00:33:32;;;;;;;20.98;4.65;;;;;;;6.52;100.00;102716.88;5070258;28;20048;-74
2024/01/25 00:35:58;;;;;;;23.88;3.38;;;;;;;6.50;100.00;102713.53;5035635;28;20032;-74
2024/01/25 00:38:23;;;;;;;23.95;4.95;;;;;;;6.50;100.00;102714.38;5068766;28;20076;-74
2024/01/25 00:40:49;;;;;;;22.27;4.45;;;;;;;6.40;100.00;102718.75;5070086;28;20078;-74
2024/01/25 00:43:15;;;;;;;23.20;5.03;;;;;;;6.36;100.00;102723.41;5070180;28;20027;-74
2024/01/25 00:45:40;;;;;;;22.65;3.78;;;;;;;6.30;100.00;102726.56;5069946;28;20032;-74
2024/01/25 00:48:06;;;;;;;24.50;3.78;;;;;;;6.31;100.00;102740.66;5068658;28;20036;-74
2024/01/25 00:50:32;;;;;;;26.77;5.45;;;;;;;6.27;100.00;102737.41;5070016;28;20035;-74
2024/01/25 00:52:58;;;;;;;18.13;3.83;;;;;;;6.20;100.00;102727.44;5068386;28;20028;-74
2024/01/25 00:55:23;;;;;;;24.70;5.47;;;;;;;6.22;100.00;102731.63;5051932;28;20032;-74
2024/01/25 00:57:51;;;;;;;23.27;6.20;;;;;;;6.19;100.00;102734.53;5070106;28;20483;-74
2024/01/25 01:00:17;;;;;;;19.95;3.45;;;;;;;6.15;100.00;102731.28;5069917;28;20036;-74
2024/01/25 01:02:44;;;;;;;26.75;6.10;;;;;;;6.13;100.00;102740.31;5069757;28;20028;-74
2024/01/25 01:05:10;;;;;;;15.70;4.50;;;;;;;6.07;100.00;102730.19;5069856;28;20495;-74
2024/01/25 01:07:36;;;;;;;14.80;3.47;;;;;;;6.02;100.00;102735.84;5069871;28;20043;-74
2024/01/25 01:10:02;;;;;;;19.52;5.28;;;;;;;6.02;100.00;102738.50;5051868;28;20032;-74
2024/01/25 01:12:27;;;;;;;25.17;5.55;;;;;;;6.01;100.00;102759.81;5068346;28;20040;-74
2024/01/25 01:14:52;;;;;;;26.33;3.97;;;;;;;5.95;100.00;102752.34;5069737;28;20027;-74
2024/01/25 01:17:18;;;;;;;18.88;4.05;;;;;;;6.00;100.00;102750.19;5069578;28;20024;-74
2024/01/25 01:19:44;;;;;;;27.00;4.35;;;;;;;5.96;100.00;102749.59;5069510;28;20028;-74
2024/01/25 01:22:10;;;;;;;18.27;4.38;;;;;;;5.92;100.00;102753.38;5069677;28;20151;-74
2024/01/25 01:24:35;;;;;;;22.73;5.75;;;;;;;5.86;100.00;102754.72;5069624;28;21049;-74
2024/01/25 01:27:00;;;;;;;33.90;6.78;;;;;;;5.86;100.00;102761.81;5051483;28;20032;-74
2024/01/25 01:29:26;;;;;;;19.83;4.88;;;;;;;5.86;100.00;102748.56;5069671;28;20024;-74
2024/01/25 01:31:52;;;;;;;23.83;5.00;;;;;;;5.86;100.00;102751.22;5068205;28;20033;-74
2024/01/25 01:34:17;;;;;;;18.20;4.57;;;;;;;5.80;100.00;102749.06;5070368;28;20035;-74
2024/01/25 01:36:43;;;;;;;25.90;5.47;;;;;;;5.73;100.00;102751.31;5074706;28;20081;-74
2024/01/25 01:39:09;;;;;;;16.70;3.95;;;;;;;5.71;100.00;102759.41;5076133;28;20048;-74
2024/01/25 01:41:34;;;;;;;20.48;4.35;;;;;;;5.67;100.00;102760.56;5076120;28;20103;-74
2024/01/25 01:44:00;;;;;;;17.35;3.47;;;;;;;5.69;100.00;102776.34;5076075;28;20544;-74
2024/01/25 01:46:39;;;;;;;17.95;4.47;;;;;;;5.63;100.00;102776.81;5076105;28;20544;-74
2024/01/25 01:49:15;;;;;;;26.88;4.28;;;;;;;5.59;100.00;102784.16;5076105;28;20496;-74
2024/01/25 01:51:42;;;;;;;13.02;2.95;;;;;;;5.56;100.00;102781.75;5076034;28;20059;-74
2024/01/25 01:54:09;;;;;;;22.55;5.22;;;;;;;5.49;100.00;102784.00;5075995;28;20063;-74
2024/01/25 01:56:35;;;;;;;17.98;4.00;;;;;;;5.48;100.00;102789.41;5076034;28;20043;-74
2024/01/25 01:59:04;;;;;;;25.73;5.68;;;;;;;5.42;100.00;102784.56;5074428;28;20387;-74
2024/01/25 02:01:29;;;;;;;20.42;4.43;;;;;;;5.39;100.00;102798.88;5075604;28;20120;-74
2024/01/25 02:03:55;;;;;;;19.23;4.70;;;;;;;5.35;100.00;102786.00;5075861;28;20099;-74
2024/01/25 02:06:23;;;;;;;16.60;3.42;;;;;;;5.33;100.00;102796.69;5075889;28;20028;-74
2024/01/25 02:08:50;;;;;;;16.85;4.90;;;;;;;5.32;100.00;102796.78;5075881;28;20056;-74
2024/01/25 02:11:16;;;;;;;22.23;6.57;;;;;;;5.28;100.00;102809.41;5075794;28;21110;-74
2024/01/25 02:13:41;;;;;;;20.63;5.03;;;;;;;5.27;100.00;102810.38;5075744;28;20130;-74
2024/01/25 02:16:07;;;;;;;21.23;5.22;;;;;;;5.29;100.00;102832.25;5074308;28;20040;-74
2024/01/25 02:18:33;;;;;;;33.60;6.63;;;;;;;5.25;100.00;102821.06;5075632;28;20071;-74
2024/01/25 02:20:59;;;;;;;25.60;4.78;;;;;;;5.15;100.00;102814.75;5075758;28;20035;-74
2024/01/25 02:23:24;;;;;;;22.33;5.43;;;;;;;5.10;100.00;102800.19;5075786;28;20107;-74
2024/01/25 02:25:50;;;;;;;22.70;5.80;;;;;;;5.17;100.00;102822.59;5075712;28;20090;-74
2024/01/25 02:28:15;;;;;;;15.10;4.38;;;;;;;5.09;100.00;102817.88;5075690;28;20476;-74
2024/01/25 02:30:41;;;;;;;20.35;3.75;;;;;;;5.02;100.00;102819.25;5075650;28;20028;-74
2024/01/25 02:33:06;;;;;;;14.80;4.30;;;;;;;5.07;100.00;102819.78;5075551;28;20032;-74
2024/01/25 02:35:32;;;;;;;15.40;3.67;;;;;;;5.01;100.00;102825.50;5075701;28;20082;-74
2024/01/25 02:37:57;;;;;;;28.08;5.05;;;;;;;4.97;100.00;102831.97;5075444;28;20048;-74
2024/01/25 02:40:23;;;;;;;25.58;5.15;;;;;;;4.91;100.00;102816.56;5075595;28;20411;-74
2024/01/25 02:42:48;;;;;;;18.55;5.30;;;;;;;4.87;100.00;102813.28;5075596;28;20023;-74
2024/01/25 02:45:14;;;;;;;19.98;4.65;;;;;;;4.91;100.00;102816.56;5073587;28;20042;-74
2024/01/25 02:47:39;;;;;;;15.45;4.65;;;;;;;4.83;100.00;102815.31;5071923;28;20105;-74
2024/01/25 02:50:05;;;;;;;20.40;6.25;;;;;;;4.86;100.00;102816.03;5071050;28;20562;-74
2024/01/25 02:52:30;;;;;;;26.77;6.55;;;;;;;4.83;100.00;102809.19;5072117;28;20064;-74
2024/01/25 02:54:56;;;;;;;27.73;8.38;;;;;;;4.77;100.00;102801.69;5070994;28;20359;-74
2024/01/25 02:57:21;;;;;;;25.33;4.47;;;;;;;4.78;100.00;102813.94;5070864;28;20083;-74
2024/01/25 02:59:47;;;;;;;16.88;4.63;;;;;;;4.73;100.00;102814.28;5072065;28;20063;-74
2024/01/25 03:02:12;;;;;;;17.45;4.05;;;;;;;4.71;100.00;102821.47;5072090;28;20028;-74
2024/01/25 03:04:38;;;;;;;19.65;4.40;;;;;;;4.68;100.00;102818.19;5072132;28;20484;-74
2024/01/25 03:07:03;;;;;;;18.60;4.22;;;;;;;4.68;100.00;102811.09;5072014;28;20123;-74
2024/01/25 03:09:29;;;;;;;21.77;6.82;;;;;;;4.63;100.00;102804.47;5070627;28;20032;-74
2024/01/25 03:11:54;;;;;;;20.20;6.32;;;;;;;4.61;100.00;102813.38;5071772;28;20037;-74
2024/01/25 03:14:19;;;;;;;30.50;7.60;;;;;;;4.60;100.00;102810.81;5071742;28;20063;-74
2024/01/25 03:16:45;;;;;;;17.73;4.80;;;;;;;4.54;100.00;102800.69;5071732;28;20051;-74
2024/01/25 03:19:10;;;;;;;18.67;4.55;;;;;;;4.58;100.00;102818.00;5071810;28;20025;-74
2024/01/25 03:21:36;;;;;;;18.55;5.43;;;;;;;4.55;100.00;102815.59;5070343;28;20480;-74
2024/01/25 03:24:01;;;;;;;21.75;5.80;;;;;;;4.47;100.00;102815.28;5071723;28;20020;-74
2024/01/25 03:26:27;;;;;;;17.90;3.90;;;;;;;4.48;100.00;102815.19;5070238;28;20076;-74
2024/01/25 03:28:53;;;;;;;20.60;4.10;;;;;;;4.49;100.00;102823.94;5071644;28;20119;-74
2024/01/25 03:31:18;;;;;;;24.73;5.05;;;;;;;4.48;100.00;102838.09;5071536;28;20128;-74
2024/01/25 03:33:43;;;;;;;22.55;6.25;;;;;;;4.48;100.00;102841.59;5071520;28;20031;-74
2024/01/25 03:36:09;;;;;;;14.25;5.05;;;;;;;4.43;100.00;102840.22;5070074;28;20036;-74
2024/01/25 03:38:34;;;;;;;24.27;4.70;;;;;;;4.43;100.00;102840.22;5071082;28;20048;-74
2024/01/25 03:40:59;;;;;;;12.35;3.83;;;;;;;4.38;100.00;102832.63;5071288;28;20033;-74
2024/01/25 03:43:25;;;;;;;20.45;5.50;;;;;;;4.37;100.00;102837.03;5071257;28;20468;-74
2024/01/25 03:45:51;;;;;;;18.13;4.20;;;;;;;4.25;100.00;102808.88;5071354;28;20032;-74
2024/01/25 03:48:16;;;;;;;24.65;7.10;;;;;;;4.29;100.00;102820.06;5071259;28;20036;-74
2024/01/25 03:50:42;;;;;;;32.65;7.32;;;;;;;4.33;100.00;102832.94;5071315;28;20044;-74
2024/01/25 03:53:07;;;;;;;19.25;4.20;;;;;;;4.26;100.00;102833.47;5070990;28;20039;-74
2024/01/25 03:55:32;;;;;;;14.02;3.63;;;;;;;4.18;100.00;102820.78;5071067;28;20028;-74
2024/01/25 03:57:58;;;;;;;18.33;3.88;;;;;;;4.17;100.00;102833.16;5051599;28;20029;-74
2024/01/25 04:00:24;;;;;;;27.20;4.57;;;;;;;4.12;100.00;102835.28;5071049;28;20056;-74
2024/01/25 04:02:50;;;;;;;17.40;4.10;;;;;;;4.09;100.00;102837.28;5070983;28;20047;-74
2024/01/25 04:05:15;;;;;;;23.15;5.55;;;;;;;4.11;100.00;102840.66;5070917;28;20068;-74
2024/01/25 04:07:41;;;;;;;24.95;4.45;;;;;;;4.10;100.00;102837.16;5070991;28;20035;-74
2024/01/25 04:10:06;;;;;;;20.88;4.45;;;;;;;4.01;100.00;102821.09;5069273;28;20029;-74
2024/01/25 04:12:33;;;;;;;26.33;4.72;;;;;;;4.07;100.00;102841.81;5052731;28;20041;-74
2024/01/25 04:14:58;;;;;;;23.88;4.28;;;;;;;4.03;100.00;102842.97;5070690;28;20024;-74
2024/01/25 04:17:23;;;;;;;20.80;4.70;;;;;;;4.00;100.00;102840.53;5069432;28;20075;-74
2024/01/25 04:19:49;;;;;;;27.98;5.35;;;;;;;3.95;100.00;102840.84;5069308;28;20032;-74
2024/01/25 04:22:14;;;;;;;17.88;4.20;;;;;;;3.90;100.00;102843.81;5070648;28;20448;-74
2024/01/25 04:24:40;;;;;;;23.20;5.38;;;;;;;3.85;100.00;102835.38;5070402;28;20028;-74
2024/01/25 04:27:05;;;;;;;20.80;4.28;;;;;;;3.86;100.00;102836.22;5069172;28;20036;-74
2024/01/25 04:29:30;;;;;;;26.38;8.13;;;;;;;3.83;100.00;102841.69;5070030;28;20036;-74
2024/01/25 04:31:56;;;;;;;18.83;5.15;;;;;;;3.73;100.00;102826.47;5070288;28;20123;-74
2024/01/25 04:34:21;;;;;;;16.40;3.45;;;;;;;3.74;100.00;102832.59;5070437;28;20056;-77
2024/01/25 04:36:47;;;;;;;25.73;5.53;;;;;;;3.68;100.00;102836.47;5070601;28;20029;-77
2024/01/25 04:39:12;;;;;;;18.77;4.05;;;;;;;3.67;100.00;102833.97;5070426;28;20139;-77
2024/01/25 04:41:37;;;;;;;28.98;6.70;;;;;;;3.58;100.00;102821.38;5070512;28;20051;-78
2024/01/25 04:44:04;;;;;;;21.67;6.07;;;;;;;3.61;100.00;102831.72;5070416;28;20357;-77
2024/01/25 04:46:34;;;;;;;21.35;6.93;;;;;;;3.48;100.00;102818.50;5070524;28;20440;-78
2024/01/25 04:49:00;;;;;;;17.42;4.15;;;;;;;3.53;100.00;102836.66;5070560;28;20040;-77
2024/01/25 04:51:25;;;;;;;17.25;3.65;;;;;;;3.48;100.00;102834.31;5070420;28;20434;-77
2024/01/25 04:53:51;;;;;;;14.70;3.80;;;;;;;3.46;100.00;102831.78;5069139;28;20029;-78
2024/01/25 04:56:16;;;;;;;23.42;4.72;;;;;;;3.46;100.00;102834.44;5068933;28;20111;-78
2024/01/25 04:58:42;;;;;;;31.85;6.30;;;;;;;3.43;100.00;102828.50;5070323;28;20025;-77
2024/01/25 05:01:07;;;;;;;20.10;5.18;;;;;;;3.46;100.00;102825.69;5070313;28;20028;-77
2024/01/25 05:03:33;;;;;;;25.38;6.97;;;;;;;3.46;100.00;102825.69;5070079;28;20028;-77
2024/01/25 05:05:58;;;;;;;21.45;5.35;;;;;;;3.46;100.00;102830.97;5070351;28;20036;-78
2024/01/25 05:08:24;;;;;;;25.42;5.03;;;;;;;3.46;100.00;102825.69;5070009;28;20037;-78
2024/01/25 05:10:49;;;;;;;15.75;4.03;;;;;;;3.48;100.00;102827.28;5068583;28;20431;-77
2024/01/25 05:13:14;;;;;;;25.70;6.65;;;;;;;3.47;100.00;102835.28;5069718;28;20119;-77
2024/01/25 05:15:40;;;;;;;17.88;3.47;;;;;;;3.45;100.00;102832.72;5069792;28;20033;-77
2024/01/25 05:18:06;;;;;;;23.08;6.15;;;;;;;3.35;100.00;102829.00;5069787;28;20028;-77
2024/01/25 05:20:32;;;;;;;21.75;4.78;;;;;;;3.35;100.00;102833.44;5069816;28;20074;-77
2024/01/25 05:22:59;;;;;;;20.27;4.95;;;;;;;3.34;100.00;102819.41;5069988;28;20061;-77
2024/01/25 05:25:26;;;;;;;20.50;5.10;;;;;;;3.32;100.00;102808.09;5069778;28;20478;-77
2024/01/25 05:27:52;;;;;;;23.73;5.57;;;;;;;3.29;100.00;102811.78;5069708;28;20119;-77
2024/01/25 05:30:17;;;;;;;30.35;9.63;;;;;;;3.30;100.00;102823.19;5068326;28;20121;-77
2024/01/25 05:32:43;;;;;;;26.45;7.93;;;;;;;3.23;100.00;102824.53;5069690;28;20670;-77
2024/01/25 05:35:08;;;;;;;21.73;8.55;;;;;;;3.19;100.00;102815.97;5069705;28;20479;-77
2024/01/25 05:37:33;;;;;;;31.15;7.20;;;;;;;3.17;100.00;102812.59;5069483;28;20032;-77
2024/01/25 05:39:59;;;;;;;23.08;6.95;;;;;;;3.27;100.00;102824.25;5069376;28;20047;-77
2024/01/25 05:42:24;;;;;;;31.05;8.35;;;;;;;3.23;100.00;102829.81;5068394;28;20056;-77
2024/01/25 05:44:50;;;;;;;27.85;8.88;;;;;;;3.28;100.00;102833.00;5059221;28;20123;-77
2024/01/25 05:47:16;;;;;;;21.92;5.53;;;;;;;3.25;100.00;102834.03;5069353;28;20033;-77
2024/01/25 05:49:41;;;;;;;34.00;7.25;;;;;;;3.18;100.00;102829.28;5069692;28;20040;-77
2024/01/25 05:52:06;;;;;;;22.63;5.70;;;;;;;3.21;100.00;102844.88;5069393;28;20024;-77
2024/01/25 05:54:32;;;;;;;21.02;7.32;;;;;;;3.25;100.00;102849.03;5068062;28;20491;-77
2024/01/25 05:56:57;;;;;;;33.05;5.95;;;;;;;3.24;100.00;102848.16;5068117;28;20058;-77
2024/01/25 05:59:22;;;;;;;23.00;6.18;;;;;;;3.20;100.00;102859.88;5069076;28;20127;-78
2024/01/25 06:01:48;;;;;;;26.35;6.60;;;;;;;3.22;100.00;102854.47;5069161;28;20115;-77
2024/01/25 06:04:13;;;;;;;28.35;7.05;;;;;;;3.17;100.00;102862.69;5069346;28;20056;-77
2024/01/25 06:06:38;;;;;;;24.00;8.45;;;;;;;3.14;100.00;102847.06;5069393;28;20036;-77
2024/01/25 06:09:05;;;;;;;27.20;7.95;;;;;;;3.17;100.00;102853.91;5069540;28;20032;-77
2024/01/25 06:11:33;;;;;;;21.75;4.90;;;;;;;3.14;100.00;102846.22;5069133;28;20037;-77
2024/01/25 06:13:58;;;;;;;18.95;5.28;;;;;;;3.05;100.00;102834.47;5069198;28;20154;-77
2024/01/25 06:16:23;;;;;;;22.58;5.15;;;;;;;3.06;100.00;102838.78;5069424;28;20440;-78
2024/01/25 06:18:49;;;;;;;23.15;4.95;;;;;;;3.06;100.00;102850.19;5067555;28;20075;-77
2024/01/25 06:21:14;;;;;;;21.52;4.82;;;;;;;3.04;100.00;102860.00;5070281;28;20051;-78
2024/01/25 06:23:40;;;;;;;25.15;6.63;;;;;;;3.01;100.00;102860.19;5073053;28;20025;-78
2024/01/25 06:26:05;;;;;;;27.95;5.22;;;;;;;2.99;100.00;102861.25;5054967;28;20056;-78
2024/01/25 06:28:30;;;;;;;23.55;5.07;;;;;;;2.98;100.00;102860.38;5071540;28;20119;-78
2024/01/25 06:30:56;;;;;;;29.33;6.53;;;;;;;3.00;100.00;102858.50;5071443;28;20085;-78
2024/01/25 06:33:22;;;;;;;20.52;5.13;;;;;;;2.97;100.00;102861.31;5072573;28;20032;-78
2024/01/25 06:35:47;;;;;;;25.27;7.18;;;;;;;2.98;100.00;102870.06;5072737;28;20039;-78
2024/01/25 06:38:13;;;;;;;33.42;8.52;;;;;;;2.93;100.00;102858.97;5072329;28;20083;-77
2024/01/25 06:40:38;;;;;;;25.35;5.57;;;;;;;2.91;100.00;102860.84;5071337;28;20032;-77
2024/01/25 06:43:03;;;;;;;23.60;6.75;;;;;;;2.93;100.00;102872.16;5072548;28;20024;-77
2024/01/25 06:45:29;;;;;;;21.60;4.82;;;;;;;2.88;100.00;102868.97;5071398;28;20062;-78
2024/01/25 06:47:54;;;;;;;26.55;6.82;;;;;;;2.87;100.00;102875.19;5072646;28;20440;-78
2024/01/25 06:50:20;;;;;;;25.10;7.43;;;;;;;2.86;100.00;102890.16;5071370;28;20036;-80
2024/01/25 06:52:45;;;;;;;26.80;8.55;;;;;;;2.80;100.00;102886.13;5072417;28;20020;-80
2024/01/25 06:55:10;;;;;;;20.33;4.93;;;;;;;2.83;100.00;102893.00;5072523;28;20060;-80
2024/01/25 06:57:37;;;;;;;16.95;7.10;;;;;;;2.82;100.00;102886.00;5072755;28;20040;-79
2024/01/25 07:00:02;;;;;;;21.65;6.40;;;;;;;2.81;100.00;102876.41;5072536;28;20036;-79
2024/01/25 07:02:28;;;;;;;19.13;5.10;;;;;;;2.79;100.00;102876.50;5072096;28;20033;-78
2024/01/25 07:04:53;;;;;;;19.10;5.47;;;;;;;2.76;100.00;102878.50;5070877;28;20037;-79
2024/01/25 07:07:19;;;;;;;20.17;6.47;;;;;;;2.73;100.00;102876.91;5072723;28;20043;-80
2024/01/25 07:09:44;;;;;;;21.90;6.00;;;;;;;2.71;100.00;102885.84;5071289;28;20033;-80
2024/01/25 07:12:10;;;;;;;15.13;5.15;;;;;;;2.71;100.00;102888.47;5053894;28;20040;-80
2024/01/25 07:14:35;;;;;;;18.02;5.10;;;;;;;2.71;100.00;102868.22;5071689;28;20040;-79
2024/01/25 07:17:00;;;;;;;21.27;7.18;;;;;;;2.71;100.00;102865.59;5071840;28;21252;-78
2024/01/25 07:19:26;;;;;;;20.90;6.03;;;;;;;2.73;100.00;102862.88;5071808;28;20024;-77
2024/01/25 07:21:51;;;;;;;23.08;8.20;;;;;;;2.73;100.00;102863.72;5071663;28;20380;-79
2024/01/25 07:24:16;;;;;;;19.65;6.88;;;;;;;2.73;100.00;102861.09;5070951;28;20365;-77
2024/01/25 07:26:42;;;;;;;27.33;9.70;;;;;;;2.74;100.00;102864.56;5069486;28;20024;-77
2024/01/25 07:29:07;;;;;;;21.23;6.35;;;;;;;2.69;100.00;102858.72;5069053;28;20395;-75
2024/01/25 07:31:32;;;;;;;28.27;7.60;;;;;;;2.75;100.00;102872.38;5069300;28;20033;-74
2024/01/25 07:33:58;;;;;;;27.38;6.75;;;;;;;2.72;100.00;102863.81;5069681;28;20063;-80
2024/01/25 07:36:23;;;;;;;21.45;6.82;;;;;;;2.66;100.00;102864.19;5067674;28;20032;-78
2024/01/25 07:38:49;;;;;;;22.30;6.05;;;;;;;2.64;100.00;102870.38;5069755;28;20077;-79
2024/01/25 07:41:15;;;;;;;16.40;6.07;;;;;;;2.67;100.00;102885.16;5069934;28;20039;-79
2024/01/25 07:43:41;;;;;;;21.90;6.75;;;;;;;2.71;100.00;102888.47;5070922;28;20048;-73
2024/01/25 07:46:07;;;;;;;20.02;6.68;;;;;;;2.77;100.00;102893.34;5072027;28;20067;-78
2024/01/25 07:48:32;;;;;;;23.00;7.47;;;;;;;2.76;100.00;102876.69;5071978;28;20036;-79
2024/01/25 07:50:57;;;;;;;31.00;7.25;;;;;;;2.84;100.00;102884.13;5071830;28;20421;-79
2024/01/25 07:53:23;;;;;;;25.23;6.57;;;;;;;2.85;100.00;102886.66;5071979;28;20043;-79
2024/01/25 07:55:48;;;;;;;22.23;6.72;;;;;;;2.96;100.00;102891.28;5070404;28;20033;-80
2024/01/25 07:58:16;;;;;;;18.27;6.03;;;;;;;3.03;100.00;102895.19;5071562;28;20028;-80
2024/01/25 08:00:42;;;;;;;20.77;8.05;;;;;;;3.07;100.00;102893.22;5071316;28;20025;-79
2024/01/25 08:03:08;;;;;;;38.17;10.02;;;;;;;3.17;100.00;102896.97;5071681;28;20071;-80
2024/01/25 08:05:33;;;;;;;26.00;7.03;;;;;;;3.22;100.00;102902.81;5071639;28;20039;-80
2024/01/25 08:07:58;;;;;;;19.15;6.57;;;;;;;3.20;100.00;102880.97;5071600;28;20383;-80
2024/01/25 08:10:24;;;;;;;37.88;8.45;;;;;;;3.26;100.00;102888.47;5071475;28;20036;-80
2024/01/25 08:12:49;;;;;;;24.13;8.75;;;;;;;3.32;100.00;102894.28;5069996;28;20047;-80
2024/01/25 08:15:15;;;;;;;18.58;5.97;;;;;;;3.34;100.00;102900.31;5071196;28;20085;-79
2024/01/25 08:17:40;;;;;;;20.92;6.25;;;;;;;3.38;100.00;102893.88;5071243;28;20052;-80
2024/01/25 08:20:06;;;;;;;20.65;7.18;;;;;;;3.41;100.00;102896.34;5070893;28;20487;-80
2024/01/25 08:22:32;;;;;;;18.88;5.53;;;;;;;3.45;100.00;102898.66;5069863;28;20041;-81
2024/01/25 08:24:58;;;;;;;24.35;7.13;;;;;;;3.50;100.00;102893.09;5070959;28;20025;-82
2024/01/25 08:27:24;;;;;;;35.55;9.70;;;;;;;3.46;100.00;102883.72;5071222;28;20431;-82
2024/01/25 08:29:50;;;;;;;28.40;9.93;;;;;;;3.58;100.00;102903.16;5071055;28;20028;-82
2024/01/25 08:32:15;;;;;;;23.05;7.55;;;;;;;3.61;100.00;102898.50;5071019;28;20678;-81
2024/01/25 08:34:40;;;;;;;23.40;6.40;;;;;;;3.60;100.00;102888.06;5071812;28;20029;-81
2024/01/25 08:37:07;;;;;;;20.42;7.38;;;;;;;3.71;100.00;102915.44;5070928;28;20028;-82
2024/01/25 08:39:32;;;;;;;24.25;8.13;;;;;;;3.78;100.00;102920.34;5070936;28;20049;-82
2024/01/25 08:42:01;;;;;;;21.42;9.45;;;;;;;3.83;100.00;102900.59;5070806;28;20107;-81
2024/01/25 08:44:27;;;;;;;20.27;9.18;;;;;;;3.88;100.00;102874.75;5070236;28;20488;-82
2024/01/25 08:46:52;;;;;;;31.17;10.55;;;;;;;3.97;100.00;102862.72;5070913;28;20044;-82
2024/01/25 08:49:17;;;;;;;26.70;9.93;;;;;;;4.04;100.00;102861.34;5070599;28;20047;-82
2024/01/25 08:51:43;;;;;;;25.70;8.10;;;;;;;4.06;100.00;102866.53;5070701;28;20025;-81
2024/01/25 08:54:08;;;;;;;21.77;8.07;;;;;;;4.15;100.00;102876.47;5070809;28;20037;-81
2024/01/25 08:56:34;;;;;;;20.02;8.15;;;;;;;4.23;100.00;102892.63;5070861;28;20025;-83
2024/01/25 08:59:00;;;;;;;33.40;7.35;;;;;;;4.30;100.00;102901.00;5070660;28;20507;-81
2024/01/25 09:01:25;;;;;;;28.85;7.75;;;;;;;4.42;100.00;102918.63;5069070;28;20036;-81
2024/01/25 09:03:51;;;;;;;37.47;11.43;;;;;;;4.45;100.00;102917.56;5070589;28;20032;-81
2024/01/25 09:06:16;;;;;;;36.58;9.88;;;;;;;4.50;100.00;102923.38;5068831;28;20028;-81
2024/01/25 09:08:42;;;;;;;24.58;7.97;;;;;;;4.57;100.00;102928.16;5068987;28;20496;-81
2024/01/25 09:11:07;;;;;;;25.52;8.98;;;;;;;4.65;100.00;102922.34;5070348;28;20025;-81
2024/01/25 09:13:32;;;;;;;26.83;7.82;;;;;;;4.70;100.00;102917.56;5070323;28;20380;-81
2024/01/25 09:15:58;;;;;;;29.40;9.05;;;;;;;4.74;100.00;102918.19;5070245;28;20029;-81
2024/01/25 09:18:23;;;;;;;25.15;7.72;;;;;;;4.79;100.00;102937.22;5070359;28;20035;-81
2024/01/25 09:20:50;;;;;;;28.08;7.90;;;;;;;4.85;100.00;102942.09;5070312;28;20478;-81
2024/01/25 09:23:16;;;;;;;24.17;8.13;;;;;;;4.82;100.00;102929.06;5069754;28;20036;-81
2024/01/25 09:25:42;;;;;;;24.95;9.50;;;;;;;4.90;100.00;102923.25;5070044;28;20537;-81
2024/01/25 09:28:08;;;;;;;30.92;9.77;;;;;;;4.97;100.00;102921.88;5069907;28;20032;-81
2024/01/25 09:30:33;;;;;;;30.02;9.55;;;;;;;5.04;100.00;102904.63;5068811;28;20504;-81
2024/01/25 09:32:58;;;;;;;25.63;7.85;;;;;;;5.13;100.00;102913.69;5070024;28;20437;-81
2024/01/25 09:35:24;;;;;;;27.98;8.85;;;;;;;5.18;100.00;102898.34;5070161;28;20115;-81
2024/01/25 09:37:52;;;;;;;26.45;9.00;;;;;;;5.26;100.00;102903.91;5070042;28;20475;-81
2024/01/25 09:40:20;;;;;;;29.88;10.40;;;;;;;5.40;100.00;102913.50;5069977;28;20139;-79
2024/01/25 09:42:47;;;;;;;29.75;10.18;;;;;;;5.43;100.00;102897.41;5069021;28;20035;-79
2024/01/25 09:45:17;;;;;;;29.27;11.95;;;;;;;5.64;100.00;102910.88;5068127;28;20025;-79
2024/01/25 09:47:43;;;;;;;23.38;7.38;;;;;;;5.75;100.00;102918.00;5069700;28;20035;-79
2024/01/25 09:50:09;;;;;;;30.40;10.25;;;;;;;5.80;100.00;102913.22;5069530;28;20060;-79
2024/01/25 09:52:35;;;;;;;30.75;9.48;;;;;;;5.88;100.00;102918.78;5069306;28;20056;-79
2024/01/25 09:55:01;;;;;;;25.75;10.52;;;;;;;5.88;100.00;102898.44;5070099;28;20783;-79
2024/01/25 09:57:30;;;;;;;20.45;7.85;;;;;;;5.96;100.00;102892.59;5073546;28;20044;-79
2024/01/25 09:59:55;;;;;;;21.00;7.25;;;;;;;6.09;100.00;102903.13;5073571;28;20480;-79
2024/01/25 10:02:21;;;;;;;22.38;9.60;;;;;;;6.12;100.00;102895.75;5073365;28;20119;-79
2024/01/25 10:04:51;;;;;;;29.45;11.90;;;;;;;6.19;100.00;102897.97;5073517;28;20040;-79
2024/01/25 10:07:35;;;;;;;24.33;8.23;;;;;;;6.31;100.00;102899.66;5073208;28;20036;-79
2024/01/25 10:10:00;;;;;;;32.72;9.32;;;;;;;6.37;100.00;102888.59;5073240;28;20028;-79
2024/01/25 10:12:25;;;;;;;27.63;10.23;;;;;;;6.44;100.00;102892.44;5073252;28;20039;-79
2024/01/25 10:14:51;;;;;;;31.88;12.75;;;;;;;6.48;100.00;102893.06;5073197;28;20032;-79
2024/01/25 10:17:16;;;;;;;27.83;8.68;;;;;;;6.49;100.00;102889.44;5073319;28;20086;-79
2024/01/25 10:19:45;;;;;;;27.08;10.00;;;;;;;6.50;100.00;102891.16;5073073;28;20029;-79
2024/01/25 10:22:12;;;;;;;30.55;13.65;;;;;;;6.48;100.00;102891.25;5073256;28;20034;-79
2024/01/25 10:24:38;;;;;;;31.05;10.60;;;;;;;6.42;100.00;102872.31;5071950;28;20111;-79
2024/01/25 10:27:04;;;;;;;25.40;9.38;;;;;;;6.47;100.00;102894.88;5072978;28;20033;-79
2024/01/25 10:29:29;;;;;;;30.58;8.40;;;;;;;6.44;100.00;102891.59;5072934;28;20659;-79
2024/01/25 10:31:55;;;;;;;22.50;8.15;;;;;;;6.43;100.00;102881.97;5054653;28;20039;-79
2024/01/25 10:34:21;;;;;;;41.25;9.52;;;;;;;6.50;100.00;102891.16;5071278;28;20045;-79
2024/01/25 10:36:48;;;;;;;22.30;8.50;;;;;;;6.53;100.00;102888.25;5072829;28;20043;-79
2024/01/25 10:39:14;;;;;;;25.45;8.27;;;;;;;6.54;100.00;102872.22;5072490;28;20454;-79
2024/01/25 10:41:41;;;;;;;35.13;9.50;;;;;;;6.65;100.00;102865.22;5072763;28;20127;-79
2024/01/25 10:44:07;;;;;;;28.45;10.13;;;;;;;6.71;100.00;102878.00;5072612;28;20033;-79
2024/01/25 10:46:32;;;;;;;25.38;8.65;;;;;;;6.77;100.00;102872.22;5073445;28;20033;-79
2024/01/25 10:49:01;;;;;;;28.95;9.48;;;;;;;6.84;100.00;102861.94;5072573;28;20476;-79
2024/01/25 10:51:28;;;;;;;28.58;10.30;;;;;;;6.88;100.00;102866.06;5072326;28;20036;-79
2024/01/25 10:53:54;;;;;;;19.27;9.57;;;;;;;6.89;100.00;102852.69;5062325;28;20399;-79
2024/01/25 10:56:20;;;;;;;29.63;9.45;;;;;;;6.98;100.00;102861.69;5071103;28;20056;-79
2024/01/25 10:58:46;;;;;;;27.83;10.18;;;;;;;7.00;100.00;102870.38;5072597;28;20111;-79
2024/01/25 11:01:11;;;;;;;28.13;10.40;;;;;;;7.04;100.00;102855.88;5071152;28;20064;-79
2024/01/25 11:03:40;;;;;;;29.88;10.90;;;;;;;7.08;100.00;102856.50;5071872;28;20028;-79
2024/01/25 11:06:08;;;;;;;24.67;9.48;;;;;;;7.13;100.00;102856.97;5072085;28;20032;-79
2024/01/25 11:08:33;;;;;;;26.27;8.77;;;;;;;7.19;100.00;102854.66;5070301;28;20039;-79
2024/01/25 11:10:59;;;;;;;31.67;9.00;;;;;;;7.19;100.00;102845.84;5071898;28;20024;-79